createdAt,value
2018-06-01T00:00:45.337Z,18.38
2018-06-01T00:01:45.001Z,18.31
2018-06-01T00:02:45.258Z,18.34
2018-06-01T00:03:45.007Z,18.28
2018-06-01T00:04:45.535Z,18.25
2018-06-01T00:05:45.530Z,18.2
2018-06-01T00:06:45.004Z,18.1
2018-06-01T00:07:45.527Z,18.18
2018-06-01T00:08:45.287Z,18.01
2018-06-01T00:09:45.539Z,18.05
2018-06-01T00:10:46.580Z,18.08
2018-06-01T00:11:45.524Z,18.01
2018-06-01T00:12:45.541Z,18.05
2018-06-01T00:13:45.278Z,18.07
2018-06-01T00:14:45.015Z,18.07
2018-06-01T00:15:45.267Z,18.08
2018-06-01T00:16:45.269Z,18.07
2018-06-01T00:17:45.547Z,18.18
2018-06-01T00:18:45.280Z,18.15
2018-06-01T00:19:45.021Z,18.29
2018-06-01T00:20:45.303Z,18.28
2018-06-01T00:21:45.313Z,18.29
2018-06-01T00:22:45.019Z,18.2
2018-06-01T00:23:45.275Z,18.19
2018-06-01T00:24:45.514Z,18.1
2018-06-01T00:25:45.057Z,18.16
2018-06-01T00:26:45.542Z,18.2
2018-06-01T00:27:45.294Z,18.23
2018-06-01T00:28:45.542Z,18.08
2018-06-01T00:29:45.293Z,18.16
2018-06-01T00:30:45.280Z,18.15
2018-06-01T00:31:45.570Z,18.13
2018-06-01T00:32:45.307Z,18.03
2018-06-01T00:33:45.281Z,17.83
2018-06-01T00:34:45.568Z,17.95
2018-06-01T00:35:45.541Z,17.94
2018-06-01T00:36:45.289Z,17.95
2018-06-01T00:37:45.115Z,17.79
2018-06-01T00:38:45.030Z,17.86
2018-06-01T00:39:45.030Z,17.89
2018-06-01T00:40:45.559Z,17.9
2018-06-01T00:41:45.556Z,17.87
2018-06-01T00:42:45.343Z,17.95
2018-06-01T00:43:45.306Z,18.04
2018-06-01T00:44:45.486Z,18.07
2018-06-01T00:45:45.563Z,18.04
2018-06-01T00:46:45.049Z,18.03
2018-06-01T00:47:45.559Z,18.04
2018-06-01T00:48:45.334Z,18.04
2018-06-01T00:49:45.574Z,17.92
2018-06-01T00:50:45.295Z,17.95
2018-06-01T00:51:45.035Z,17.86
2018-06-01T00:52:45.319Z,17.87
2018-06-01T00:53:45.562Z,17.92
2018-06-01T00:54:45.312Z,17.9
2018-06-01T00:55:45.310Z,17.79
2018-06-01T00:56:45.302Z,17.78
2018-06-01T00:57:45.310Z,17.76
2018-06-01T00:58:45.302Z,17.71
2018-06-01T00:59:45.562Z,17.74
2018-06-01T01:00:45.577Z,17.72
2018-06-01T01:01:45.561Z,17.65
2018-06-01T01:02:45.573Z,17.76
2018-06-01T01:03:45.301Z,17.76
2018-06-01T01:04:45.045Z,17.71
2018-06-01T01:05:45.573Z,17.67
2018-06-01T01:06:45.576Z,17.67
2018-06-01T01:07:45.564Z,17.63
2018-06-01T01:08:45.318Z,17.59
2018-06-01T01:09:45.579Z,17.7
2018-06-01T01:10:45.315Z,17.71
2018-06-01T01:11:46.129Z,17.74
2018-06-01T01:12:45.070Z,17.82
2018-06-01T01:13:45.351Z,17.74
2018-06-01T01:14:45.314Z,17.74
2018-06-01T01:15:45.311Z,17.68
2018-06-01T01:16:45.333Z,17.68
2018-06-01T01:17:45.320Z,17.68
2018-06-01T01:18:45.588Z,17.72
2018-06-01T01:19:45.347Z,17.72
2018-06-01T01:20:45.332Z,17.74
2018-06-01T01:21:45.580Z,17.79
2018-06-01T01:22:45.345Z,17.74
2018-06-01T01:23:45.577Z,17.78
2018-06-01T01:24:45.600Z,17.8
2018-06-01T01:25:45.584Z,17.76
2018-06-01T01:26:45.358Z,17.78
2018-06-01T01:27:45.590Z,17.85
2018-06-01T01:28:45.071Z,17.86
2018-06-01T01:29:45.577Z,17.82
2018-06-01T01:30:45.337Z,17.86
2018-06-01T01:31:45.321Z,17.78
2018-06-01T01:32:45.321Z,17.76
2018-06-01T01:33:45.081Z,17.87
2018-06-01T01:34:45.340Z,17.85
2018-06-01T01:35:45.355Z,17.82
2018-06-01T01:36:45.085Z,17.79
2018-06-01T01:37:45.601Z,17.76
2018-06-01T01:38:45.592Z,17.85
2018-06-01T01:39:45.592Z,17.85
2018-06-01T01:40:45.593Z,17.78
2018-06-01T01:41:49.888Z,17.76
2018-06-01T01:42:45.367Z,17.74
2018-06-01T01:43:45.341Z,17.79
2018-06-01T01:44:45.356Z,17.83
2018-06-01T01:45:45.348Z,17.79
2018-06-01T01:46:45.330Z,17.85
2018-06-01T01:47:45.608Z,17.72
2018-06-01T01:48:45.338Z,17.74
2018-06-01T01:49:45.090Z,17.76
2018-06-01T01:50:45.361Z,17.83
2018-06-01T01:51:45.619Z,17.83
2018-06-01T01:52:45.611Z,17.94
2018-06-01T01:53:45.337Z,17.8
2018-06-01T01:54:45.603Z,17.72
2018-06-01T01:55:45.616Z,17.74
2018-06-01T01:56:45.341Z,17.6
2018-06-01T01:57:45.352Z,17.65
2018-06-01T01:58:45.356Z,17.71
2018-06-01T01:59:45.354Z,17.6
2018-06-01T02:00:45.356Z,17.52
2018-06-01T02:01:45.629Z,17.63
2018-06-01T02:02:45.345Z,17.7
2018-06-01T02:03:45.347Z,17.59
2018-06-01T02:04:45.625Z,17.7
2018-06-01T02:05:45.346Z,17.76
2018-06-01T02:06:45.357Z,17.79
2018-06-01T02:07:45.362Z,17.71
2018-06-01T02:08:45.352Z,17.64
2018-06-01T02:09:45.618Z,17.67
2018-06-01T02:10:45.347Z,17.59
2018-06-01T02:11:45.549Z,17.64
2018-06-01T02:12:45.350Z,17.65
2018-06-01T02:13:45.350Z,17.63
2018-06-01T02:14:45.353Z,17.68
2018-06-01T02:15:45.103Z,17.68
2018-06-01T02:16:45.358Z,17.6
2018-06-01T02:17:45.368Z,17.54
2018-06-01T02:18:45.401Z,17.57
2018-06-01T02:19:45.618Z,17.38
2018-06-01T02:20:45.636Z,17.48
2018-06-01T02:21:45.390Z,17.38
2018-06-01T02:22:45.363Z,17.33
2018-06-01T02:23:45.633Z,17.44
2018-06-01T02:24:45.113Z,17.39
2018-06-01T02:25:45.619Z,17.36
2018-06-01T02:26:45.625Z,17.38
2018-06-01T02:27:45.619Z,17.52
2018-06-01T02:28:45.628Z,17.48
2018-06-01T02:29:45.352Z,17.49
2018-06-01T02:30:45.696Z,17.49
2018-06-01T02:31:45.631Z,17.59
2018-06-01T02:32:45.382Z,17.54
2018-06-01T02:33:45.628Z,17.59
2018-06-01T02:34:45.372Z,17.63
2018-06-01T02:35:45.626Z,17.64
2018-06-01T02:36:45.637Z,17.56
2018-06-01T02:37:45.370Z,17.57
2018-06-01T02:38:45.638Z,17.59
2018-06-01T02:39:45.648Z,17.56
2018-06-01T02:40:45.633Z,17.56
2018-06-01T02:41:45.107Z,17.57
2018-06-01T02:42:45.366Z,17.46
2018-06-01T02:43:45.668Z,17.51
2018-06-01T02:44:45.644Z,17.42
2018-06-01T02:45:45.400Z,17.38
2018-06-01T02:46:45.374Z,17.41
2018-06-01T02:47:45.378Z,17.27
2018-06-01T02:48:45.383Z,17.23
2018-06-01T02:49:45.116Z,17.14
2018-06-01T02:50:45.376Z,17.16
2018-06-01T02:51:45.380Z,17.14
2018-06-01T02:52:45.378Z,17.11
2018-06-01T02:53:45.646Z,17.01
2018-06-01T02:54:45.115Z,17.09
2018-06-01T02:55:45.367Z,17.02
2018-06-01T02:56:45.403Z,17.08
2018-06-01T02:57:45.645Z,16.99
2018-06-01T02:58:45.423Z,17.02
2018-06-01T02:59:45.401Z,17.01
2018-06-01T03:00:45.387Z,17.04
2018-06-01T03:01:45.698Z,17.04
2018-06-01T03:02:45.647Z,17.01
2018-06-01T03:03:45.656Z,17.04
2018-06-01T03:04:45.673Z,17.04
2018-06-01T03:05:45.389Z,17.04
2018-06-01T03:06:45.648Z,17.16
2018-06-01T03:07:45.123Z,17.06
2018-06-01T03:08:45.656Z,17.05
2018-06-01T03:09:45.386Z,17.05
2018-06-01T03:10:45.392Z,17.02
2018-06-01T03:11:45.382Z,16.97
2018-06-01T03:12:45.384Z,16.94
2018-06-01T03:13:45.378Z,16.9
2018-06-01T03:14:45.653Z,16.97
2018-06-01T03:15:45.398Z,17.04
2018-06-01T03:16:45.651Z,17.08
2018-06-01T03:17:45.383Z,17.04
2018-06-01T03:18:45.652Z,17.05
2018-06-01T03:19:45.125Z,17.2
2018-06-01T03:20:45.410Z,17.22
2018-06-01T03:21:45.646Z,17.23
2018-06-01T03:22:45.119Z,17.3
2018-06-01T03:23:45.387Z,17.3
2018-06-01T03:24:45.643Z,17.23
2018-06-01T03:25:45.387Z,17.16
2018-06-01T03:26:45.390Z,17.22
2018-06-01T03:27:45.389Z,17.19
2018-06-01T03:28:45.383Z,17.26
2018-06-01T03:29:45.663Z,17.2
2018-06-01T03:30:45.380Z,17.22
2018-06-01T03:31:45.389Z,17.16
2018-06-01T03:32:45.662Z,17.24
2018-06-01T03:33:45.383Z,17.19
2018-06-01T03:34:45.649Z,17.19
2018-06-01T03:35:45.120Z,17.09
2018-06-01T03:36:45.406Z,16.97
2018-06-01T03:37:45.658Z,16.93
2018-06-01T03:38:45.385Z,16.96
2018-06-01T03:39:45.666Z,16.96
2018-06-01T03:40:45.403Z,16.93
2018-06-01T03:41:45.391Z,16.97
2018-06-01T03:42:45.125Z,16.86
2018-06-01T03:43:45.404Z,16.84
2018-06-01T03:44:45.402Z,16.81
2018-06-01T03:45:45.391Z,16.94
2018-06-01T03:46:45.391Z,16.97
2018-06-01T03:47:45.398Z,17.09
2018-06-01T03:48:45.672Z,17.04
2018-06-01T03:49:45.134Z,17.02
2018-06-01T03:50:45.391Z,17.09
2018-06-01T03:51:45.395Z,17.11
2018-06-01T03:52:45.399Z,17.05
2018-06-01T03:53:45.387Z,17.06
2018-06-01T03:54:45.396Z,17.02
2018-06-01T03:55:45.392Z,17.05
2018-06-01T03:56:45.408Z,17.04
2018-06-01T03:57:45.402Z,17.09
2018-06-01T03:58:45.128Z,17.2
2018-06-01T03:59:45.395Z,17.12
2018-06-01T04:00:45.424Z,17.15
2018-06-01T04:01:45.656Z,17.2
2018-06-01T04:02:45.662Z,17.36
2018-06-01T04:03:45.393Z,17.38
2018-06-01T04:04:45.397Z,17.34
2018-06-01T04:05:45.397Z,17.46
2018-06-01T04:06:45.391Z,17.54
2018-06-01T04:07:45.662Z,17.68
2018-06-01T04:08:45.671Z,17.8
2018-06-01T04:09:45.659Z,18.05
2018-06-01T04:10:45.392Z,18.15
2018-06-01T04:11:45.656Z,18.13
2018-06-01T04:12:45.418Z,18.19
2018-06-01T04:13:45.400Z,18.22
2018-06-01T04:14:45.405Z,18.18
2018-06-01T04:15:45.666Z,18.2
2018-06-01T04:16:45.140Z,18.31
2018-06-01T04:17:45.407Z,18.41
2018-06-01T04:18:45.408Z,18.71
2018-06-01T04:19:45.149Z,18.84
2018-06-01T04:20:45.404Z,19.09
2018-06-01T04:21:45.422Z,19.22
2018-06-01T04:22:45.673Z,19.48
2018-06-01T04:23:45.412Z,19.73
2018-06-01T04:24:45.406Z,19.95
2018-06-01T04:25:45.409Z,20.07
2018-06-01T04:26:45.436Z,20.34
2018-06-01T04:27:45.840Z,20.44
2018-06-01T04:28:45.420Z,20.6
2018-06-01T04:29:45.766Z,20.63
2018-06-01T04:30:45.698Z,20.66
2018-06-01T04:31:45.436Z,20.7
2018-06-01T04:32:45.466Z,20.65
2018-06-01T04:33:45.699Z,20.67
2018-06-01T04:34:45.696Z,20.72
2018-06-01T04:35:45.703Z,20.85
2018-06-01T04:36:45.451Z,20.99
2018-06-01T04:37:45.194Z,20.99
2018-06-01T04:38:45.446Z,20.96
2018-06-01T04:39:45.717Z,20.87
2018-06-01T04:40:45.456Z,20.66
2018-06-01T04:41:45.729Z,20.65
2018-06-01T04:42:45.482Z,20.65
2018-06-01T04:43:45.472Z,20.5
2018-06-01T04:44:45.209Z,20.34
2018-06-01T04:45:45.736Z,20.41
2018-06-01T04:46:45.742Z,20.28
2018-06-01T04:47:45.741Z,20.58
2018-06-01T04:48:45.482Z,20.7
2018-06-01T04:49:45.749Z,20.92
2018-06-01T04:50:45.758Z,21.03
2018-06-01T04:51:45.758Z,21.14
2018-06-01T04:52:45.762Z,21.24
2018-06-01T04:53:45.510Z,21.54
2018-06-01T04:54:45.505Z,21.54
2018-06-01T04:55:45.509Z,21.69
2018-06-01T04:56:45.793Z,21.91
2018-06-01T04:57:45.526Z,21.85
2018-06-01T04:58:45.788Z,21.92
2018-06-01T04:59:45.788Z,21.91
2018-06-01T05:00:45.537Z,21.72
2018-06-01T05:01:45.801Z,21.64
2018-06-01T05:02:45.806Z,21.45
2018-06-01T05:03:45.554Z,21.35
2018-06-01T05:04:45.818Z,21.29
2018-06-01T05:05:45.568Z,21.2
2018-06-01T05:06:45.565Z,21.07
2018-06-01T05:07:45.565Z,20.87
2018-06-01T05:08:45.560Z,20.81
2018-06-01T05:09:45.836Z,20.7
2018-06-01T05:10:45.571Z,20.74
2018-06-01T05:11:47.694Z,20.7
2018-06-01T05:12:45.585Z,20.67
2018-06-01T05:13:45.841Z,20.62
2018-06-01T05:14:45.858Z,20.82
2018-06-01T05:15:45.609Z,21.07
2018-06-01T05:16:45.995Z,21.09
2018-06-01T05:17:45.858Z,21.03
2018-06-01T05:18:45.863Z,20.95
2018-06-01T05:19:45.355Z,20.81
2018-06-01T05:20:45.864Z,20.81
2018-06-01T05:21:45.912Z,20.65
2018-06-01T05:22:45.890Z,20.7
2018-06-01T05:23:45.877Z,20.66
2018-06-01T05:24:45.633Z,20.69
2018-06-01T05:25:45.635Z,20.65
2018-06-01T05:26:45.884Z,20.67
2018-06-01T05:27:45.632Z,20.51
2018-06-01T05:28:45.888Z,20.48
2018-06-01T05:29:45.387Z,20.43
2018-06-01T05:30:45.636Z,20.37
2018-06-01T05:31:45.656Z,20.44
2018-06-01T05:32:45.897Z,20.72
2018-06-01T05:33:45.393Z,21.05
2018-06-01T05:34:45.898Z,21.15
2018-06-01T05:35:45.915Z,21.22
2018-06-01T05:36:45.912Z,21.21
2018-06-01T05:37:45.667Z,21.12
2018-06-01T05:38:45.663Z,21.17
2018-06-01T05:39:45.664Z,21.27
2018-06-01T05:40:45.665Z,21.6
2018-06-01T05:41:45.684Z,21.77
2018-06-01T05:42:45.931Z,21.73
2018-06-01T05:43:45.948Z,21.57
2018-06-01T05:44:45.946Z,21.6
2018-06-01T05:45:45.688Z,21.6
2018-06-01T05:46:45.712Z,21.67
2018-06-01T05:47:45.961Z,22.04
2018-06-01T05:48:45.960Z,22.18
2018-06-01T05:49:45.966Z,22.1
2018-06-01T05:50:45.712Z,21.88
2018-06-01T05:51:45.721Z,21.62
2018-06-01T05:52:45.983Z,21.43
2018-06-01T05:53:45.477Z,21.21
2018-06-01T05:54:45.716Z,21.14
2018-06-01T05:55:45.737Z,21.4
2018-06-01T05:56:45.718Z,21.76
2018-06-01T05:57:45.749Z,22.22
2018-06-01T05:58:45.996Z,22.68
2018-06-01T05:59:45.738Z,23.06
2018-06-01T06:00:45.998Z,23.43
2018-06-01T06:01:46.008Z,24.08
2018-06-01T06:02:46.007Z,24.66
2018-06-01T06:03:46.043Z,25.07
2018-06-01T06:04:45.885Z,25.44
2018-06-01T06:05:45.795Z,25.58
2018-06-01T06:06:45.512Z,25.62
2018-06-01T06:07:45.521Z,25.88
2018-06-01T06:08:45.788Z,26.18
2018-06-01T06:09:45.523Z,26.33
2018-06-01T06:10:45.527Z,26.4
2018-06-01T06:11:45.792Z,26.31
2018-06-01T06:12:46.898Z,26.45
2018-06-01T06:23:26.691Z,28.32
2018-06-01T06:24:26.955Z,28.56
2018-06-01T06:25:27.231Z,28.75
2018-06-01T06:26:26.969Z,28.97
2018-06-01T06:27:27.232Z,29.1
2018-06-01T06:28:26.991Z,29.14
2018-06-01T06:29:26.984Z,29.39
2018-06-01T06:30:26.988Z,29.81
2018-06-01T06:31:27.364Z,30.27
2018-06-01T06:32:27.267Z,30.54
2018-06-01T06:33:27.282Z,30.65
2018-06-01T06:34:27.018Z,30.37
2018-06-01T06:35:27.037Z,30.47
2018-06-01T06:36:26.779Z,30.66
2018-06-01T06:37:27.325Z,30.59
2018-06-01T06:38:27.321Z,30.5
2018-06-01T06:39:27.069Z,29.95
2018-06-01T06:40:27.069Z,29.41
2018-06-01T06:41:26.817Z,29.13
2018-06-01T06:42:27.075Z,29.05
2018-06-01T06:43:27.405Z,29.26
2018-06-01T06:44:26.838Z,29.27
2018-06-01T06:45:27.377Z,29.17
2018-06-01T06:46:26.854Z,29.35
2018-06-01T06:47:27.122Z,29.71
2018-06-01T06:48:27.389Z,30.15
2018-06-01T06:49:27.401Z,30.53
2018-06-01T06:50:27.418Z,30.91
2018-06-01T06:51:27.416Z,31.31
2018-06-01T06:52:27.427Z,31.69
2018-06-01T06:53:27.430Z,31.36
2018-06-01T06:54:27.454Z,31.28
2018-06-01T06:55:27.188Z,31.46
2018-06-01T06:56:27.199Z,31.61
2018-06-01T06:57:27.210Z,31.73
2018-06-01T06:58:27.205Z,32
2018-06-01T06:59:27.516Z,32.19
2018-06-01T07:00:26.970Z,31.97
2018-06-01T07:01:27.247Z,32.01
2018-06-01T07:02:26.995Z,32.22
2018-06-01T07:03:27.527Z,32.48
2018-06-01T07:04:27.558Z,32.55
2018-06-01T07:05:27.539Z,32.56
2018-06-01T07:06:27.578Z,32.33
2018-06-01T07:07:27.306Z,31.94
2018-06-01T07:08:27.610Z,31.47
2018-06-01T07:09:27.606Z,30.73
2018-06-01T07:10:27.601Z,30.1
2018-06-01T07:11:27.071Z,29.76
2018-06-01T07:12:27.112Z,29.78
2018-06-01T07:13:27.091Z,29.73
2018-06-01T07:14:27.360Z,29.86
2018-06-01T07:15:27.650Z,30.13
2018-06-01T07:16:27.132Z,30.27
2018-06-01T07:17:27.386Z,29.95
2018-06-01T07:18:27.403Z,30.1
2018-06-01T07:19:27.436Z,30.31
2018-06-01T07:20:27.824Z,30.48
2018-06-01T07:21:27.422Z,30.61
2018-06-01T07:22:27.801Z,30.73
2018-06-01T07:23:27.481Z,30.78
2018-06-01T07:24:27.474Z,30.75
2018-06-01T07:25:27.731Z,30.37
2018-06-01T07:26:27.749Z,30.23
2018-06-01T07:27:27.467Z,30.15
2018-06-01T07:28:27.598Z,30.06
2018-06-01T07:29:27.218Z,30.19
2018-06-01T07:30:27.232Z,30.43
2018-06-01T07:31:27.505Z,30.32
2018-06-01T07:32:27.503Z,30.43
2018-06-01T07:33:27.838Z,30.46
2018-06-01T07:34:27.644Z,30.35
2018-06-01T07:35:27.533Z,29.6
2018-06-01T07:36:27.855Z,28.6
2018-06-01T07:37:27.333Z,28.56
2018-06-01T07:38:27.574Z,28.42
2018-06-01T07:39:27.830Z,28.62
2018-06-01T07:40:27.604Z,28.47
2018-06-01T07:41:27.621Z,28.39
2018-06-01T07:42:27.675Z,28.54
2018-06-01T07:43:29.532Z,28.94
2018-06-01T07:44:27.901Z,29.5
2018-06-01T07:45:27.909Z,29.69
2018-06-01T07:46:27.893Z,29.75
2018-06-01T07:47:27.658Z,29.38
2018-06-01T07:48:27.916Z,28.98
2018-06-01T07:49:27.957Z,28.78
2018-06-01T07:50:27.680Z,28.88
2018-06-01T07:51:27.403Z,29.13
2018-06-01T07:52:27.701Z,29.34
2018-06-01T07:53:28.223Z,29.54
2018-06-01T07:54:27.474Z,29.51
2018-06-01T07:55:27.711Z,29.34
2018-06-01T07:56:27.713Z,29.45
2018-06-01T07:57:27.712Z,29.86
2018-06-01T07:58:27.738Z,29.84
2018-06-01T07:59:27.464Z,29.29
2018-06-01T08:00:28.015Z,28.72
2018-06-01T08:01:28.016Z,28.11
2018-06-01T08:02:27.781Z,27.39
2018-06-01T08:03:28.086Z,26.83
2018-06-01T08:04:27.771Z,26.89
2018-06-01T08:05:27.523Z,26.9
2018-06-01T08:06:27.779Z,27.08
2018-06-01T08:07:28.039Z,27.1
2018-06-01T08:08:27.813Z,26.99
2018-06-01T08:09:27.825Z,26.71
2018-06-01T08:10:28.078Z,26.74
2018-06-01T08:11:27.837Z,27.29
2018-06-01T08:12:28.083Z,27.98
2018-06-01T08:13:28.136Z,28.45
2018-06-01T08:14:27.580Z,28.59
2018-06-01T08:15:27.602Z,28.45
2018-06-01T08:16:28.113Z,28.27
2018-06-01T08:17:27.663Z,27.93
2018-06-01T08:18:27.879Z,27.65
2018-06-01T08:19:27.885Z,27.36
2018-06-01T08:20:27.870Z,26.95
2018-06-01T08:21:27.884Z,26.75
2018-06-01T08:22:28.239Z,26.62
2018-06-01T08:23:28.158Z,26.51
2018-06-01T08:24:27.950Z,26.51
2018-06-01T08:25:27.664Z,26.52
2018-06-01T08:26:28.178Z,26.48
2018-06-01T08:27:28.173Z,26.58
2018-06-01T08:28:28.183Z,27.08
2018-06-01T08:29:28.190Z,27.64
2018-06-01T08:30:27.945Z,28.22
2018-06-01T08:31:27.948Z,28.75
2018-06-01T08:32:28.052Z,29.36
2018-06-01T08:33:27.980Z,29.86
2018-06-01T08:34:27.705Z,30.27
2018-06-01T08:35:27.989Z,30.53
2018-06-01T08:36:28.325Z,30.47
2018-06-01T08:37:28.239Z,30.34
2018-06-01T08:38:27.990Z,30.43
2018-06-01T08:39:28.115Z,30.59
2018-06-01T08:40:28.255Z,31.15
2018-06-01T08:41:28.013Z,31.44
2018-06-01T08:42:27.768Z,31.78
2018-06-01T08:43:28.032Z,31.96
2018-06-01T08:44:28.300Z,32.26
2018-06-01T08:45:28.046Z,31.94
2018-06-01T08:46:28.445Z,31.69
2018-06-01T08:47:28.330Z,31.66
2018-06-01T08:48:28.088Z,31.71
2018-06-01T08:49:28.089Z,31.78
2018-06-01T08:50:28.347Z,31.81
2018-06-01T08:51:28.342Z,31.49
2018-06-01T08:52:28.412Z,31.1
2018-06-01T08:53:28.114Z,30.88
2018-06-01T08:54:28.178Z,30.75
2018-06-01T08:55:28.373Z,30.57
2018-06-01T08:56:28.426Z,30.53
2018-06-01T08:57:27.887Z,30.25
2018-06-01T08:58:28.474Z,29.95
2018-06-01T08:59:28.163Z,29.86
2018-06-01T09:00:28.428Z,29.47
2018-06-01T09:01:28.427Z,29.13
2018-06-01T09:02:28.445Z,29.1
2018-06-01T09:03:28.459Z,29.05
2018-06-01T09:04:28.225Z,28.98
2018-06-01T09:05:28.242Z,28.88
2018-06-01T09:06:28.217Z,28.6
2018-06-01T09:07:28.230Z,28.26
2018-06-01T09:08:28.493Z,28.17
2018-06-01T09:09:28.232Z,28.19
2018-06-01T09:10:28.638Z,28.1
2018-06-01T09:11:28.253Z,28.07
2018-06-01T09:12:28.513Z,28.08
2018-06-01T09:13:28.283Z,28.22
2018-06-01T09:14:28.271Z,28.15
2018-06-01T09:15:28.037Z,28.22
2018-06-01T09:16:28.552Z,28.3
2018-06-01T09:17:28.034Z,28.25
2018-06-01T09:18:28.297Z,28.08
2018-06-01T09:19:28.309Z,27.93
2018-06-01T09:20:28.574Z,27.86
2018-06-01T09:21:28.058Z,27.86
2018-06-01T09:22:28.324Z,27.73
2018-06-01T09:23:28.076Z,27.71
2018-06-01T09:24:28.357Z,27.83
2018-06-01T09:25:28.088Z,27.82
2018-06-01T09:26:28.608Z,27.74
2018-06-01T09:27:28.621Z,27.73
2018-06-01T09:28:28.437Z,27.47
2018-06-01T09:29:28.427Z,27.18
2018-06-01T09:30:28.446Z,26.96
2018-06-01T09:31:28.399Z,26.96
2018-06-01T09:32:28.402Z,27.05
2018-06-01T09:33:28.673Z,27.22
2018-06-01T09:34:28.578Z,27.21
2018-06-01T09:35:28.730Z,27.18
2018-06-01T09:36:28.701Z,27.18
2018-06-01T09:37:28.699Z,27.18
2018-06-01T09:38:28.176Z,27.3
2018-06-01T09:39:28.441Z,27.26
2018-06-01T09:40:28.703Z,27.02
2018-06-01T09:41:28.702Z,26.96
2018-06-01T09:42:28.703Z,26.84
2018-06-01T09:43:28.453Z,26.81
2018-06-01T09:44:29.527Z,26.85
2018-06-01T09:45:28.470Z,27.03
2018-06-01T09:46:28.749Z,27.15
2018-06-01T09:47:28.489Z,27.39
2018-06-01T09:48:28.512Z,27.39
2018-06-01T09:49:28.786Z,27.2
2018-06-01T09:50:28.262Z,27.18
2018-06-01T09:51:28.777Z,27.29
2018-06-01T09:52:28.581Z,27.55
2018-06-01T09:53:28.782Z,27.64
2018-06-01T09:54:28.791Z,27.89
2018-06-01T09:55:28.299Z,28.14
2018-06-01T09:56:28.552Z,28.04
2018-06-01T09:57:29.083Z,28.19
2018-06-01T09:58:28.558Z,28.2
2018-06-01T09:59:28.640Z,28.27
2018-06-01T10:00:28.833Z,28.41
2018-06-01T10:01:28.866Z,28.45
2018-06-01T10:02:28.427Z,28.32
2018-06-01T10:03:28.859Z,28.11
2018-06-01T10:04:28.619Z,27.93
2018-06-01T10:05:28.609Z,27.8
2018-06-01T10:06:28.882Z,27.49
2018-06-01T10:07:34.188Z,27.29
2018-06-01T10:08:28.736Z,27.37
2018-06-01T10:09:28.611Z,27.48
2018-06-01T10:10:28.893Z,27.59
2018-06-01T10:11:28.896Z,27.86
2018-06-01T10:12:28.893Z,27.98
2018-06-01T10:13:28.896Z,27.86
2018-06-01T10:14:29.950Z,27.95
2018-06-01T10:15:28.668Z,27.95
2018-06-01T10:16:28.920Z,27.64
2018-06-01T10:17:28.655Z,27.51
2018-06-01T10:18:28.917Z,27.4
2018-06-01T10:19:28.682Z,27.4
2018-06-01T10:20:28.938Z,27.44
2018-06-01T10:21:28.686Z,27.48
2018-06-01T10:22:28.963Z,27.58
2018-06-01T10:53:50.349Z,28.45
2018-06-01T10:54:50.142Z,28.52
2018-06-01T10:55:50.356Z,28.62
2018-06-01T10:56:49.843Z,28.6
2018-06-01T10:57:50.372Z,28.56
2018-06-01T10:58:50.098Z,28.51
2018-06-01T10:59:50.372Z,28.35
2018-06-01T11:00:49.868Z,28.32
2018-06-01T11:01:50.128Z,28.19
2018-06-01T11:02:50.378Z,27.9
2018-06-01T11:03:50.401Z,27.6
2018-06-01T11:04:49.879Z,27.4
2018-06-01T11:05:50.422Z,27.29
2018-06-01T11:06:50.175Z,27.2
2018-06-01T11:07:50.438Z,26.93
2018-06-01T11:08:50.428Z,26.8
2018-06-01T11:09:50.174Z,26.88
2018-06-01T11:10:50.420Z,26.97
2018-06-01T11:11:50.427Z,27.07
2018-06-01T11:12:50.430Z,27.1
2018-06-01T11:13:50.672Z,27.27
2018-06-01T11:14:50.503Z,27.32
2018-06-01T11:15:50.182Z,27.39
2018-06-01T11:16:50.205Z,27.35
2018-06-01T11:17:50.197Z,27.14
2018-06-01T11:18:50.461Z,27.1
2018-06-01T11:19:49.953Z,27.07
2018-06-01T11:20:50.492Z,26.99
2018-06-01T11:21:50.222Z,26.92
2018-06-01T11:22:50.231Z,26.75
2018-06-01T11:23:50.501Z,26.52
2018-06-01T11:24:50.243Z,26.18
2018-06-01T11:25:50.566Z,25.93
2018-06-01T11:26:50.537Z,25.85
2018-06-01T11:27:50.255Z,25.83
2018-06-01T11:28:50.541Z,25.96
2018-06-01T11:29:50.536Z,25.91
2018-06-01T11:30:50.544Z,26.15
2018-06-01T11:31:50.027Z,26.38
2018-06-01T11:32:50.540Z,26.47
2018-06-01T11:33:50.547Z,26.63
2018-06-01T11:34:50.286Z,26.68
2018-06-01T11:35:50.560Z,26.74
2018-06-01T11:36:50.309Z,26.89
2018-06-01T11:37:50.571Z,26.89
2018-06-01T11:38:50.621Z,26.89
2018-06-01T11:39:50.319Z,26.84
2018-06-01T11:40:50.584Z,26.71
2018-06-01T11:41:50.071Z,26.9
2018-06-01T11:42:50.333Z,26.9
2018-06-01T11:43:50.620Z,27.08
2018-06-01T11:44:50.359Z,27.12
2018-06-01T11:45:50.620Z,27.4
2018-06-01T11:46:50.623Z,27.55
2018-06-01T11:47:50.669Z,27.82
2018-06-01T11:48:50.640Z,27.92
2018-06-01T11:49:50.375Z,27.9
2018-06-01T11:50:50.648Z,28.05
2018-06-01T11:51:50.385Z,28.07
2018-06-01T11:52:50.439Z,27.93
2018-06-01T11:53:51.236Z,27.9
2018-06-01T11:54:50.653Z,27.86
2018-06-01T11:55:50.141Z,27.82
2018-06-01T11:56:50.672Z,27.8
2018-06-01T11:57:50.414Z,27.77
2018-06-01T11:58:50.695Z,27.71
2018-06-01T11:59:50.689Z,27.73
2018-06-01T12:00:50.701Z,27.65
2018-06-01T12:01:50.224Z,27.33
2018-06-01T12:02:50.711Z,27.32
2018-06-01T12:03:50.448Z,27.35
2018-06-01T12:04:50.197Z,27.4
2018-06-01T12:05:50.727Z,27.29
2018-06-01T12:06:50.732Z,27.22
2018-06-01T12:07:50.736Z,26.97
2018-06-01T12:08:50.752Z,26.84
2018-06-01T12:09:50.740Z,26.65
2018-06-01T12:10:50.514Z,26.65
2018-06-01T12:11:50.518Z,26.59
2018-06-01T12:12:50.526Z,26.59
2018-06-01T12:13:50.782Z,26.58
2018-06-01T12:14:50.525Z,26.52
2018-06-01T12:15:50.520Z,26.45
2018-06-01T12:16:50.550Z,26.26
2018-06-01T12:17:50.670Z,26.05
2018-06-01T12:18:50.817Z,25.93
2018-06-01T12:19:50.551Z,25.91
2018-06-01T12:20:50.294Z,25.96
2018-06-01T12:21:50.568Z,25.98
2018-06-01T12:22:50.835Z,25.98
2018-06-01T12:23:50.401Z,25.88
2018-06-01T12:24:50.838Z,25.93
2018-06-01T12:25:50.569Z,25.9
2018-06-01T12:26:50.830Z,25.98
2018-06-01T12:27:50.582Z,25.95
2018-06-01T12:28:50.580Z,25.95
2018-06-01T12:29:50.590Z,26.07
2018-06-01T12:30:50.871Z,26.09
2018-06-01T12:31:50.860Z,25.91
2018-06-01T12:32:50.902Z,25.81
2018-06-01T12:33:50.877Z,25.84
2018-06-01T12:34:50.620Z,25.83
2018-06-01T12:35:50.619Z,25.99
2018-06-01T12:36:50.634Z,26.13
2018-06-01T12:37:50.627Z,26.29
2018-06-01T12:38:50.896Z,26.34
2018-06-01T12:39:50.901Z,26.44
2018-06-01T12:40:50.911Z,26.53
2018-06-01T12:41:50.911Z,26.55
2018-06-01T12:42:50.655Z,26.84
2018-06-01T12:43:50.665Z,26.99
2018-06-01T12:44:50.945Z,27.32
2018-06-01T12:45:50.665Z,27.51
2018-06-01T12:46:50.673Z,27.68
2018-06-01T12:47:50.953Z,27.85
2018-06-01T12:48:50.958Z,27.83
2018-06-01T12:49:50.440Z,27.89
2018-06-01T12:50:50.696Z,27.96
2018-06-01T12:51:50.960Z,27.95
2018-06-01T12:52:50.983Z,27.9
2018-06-01T12:53:51.020Z,27.89
2018-06-01T12:54:50.978Z,27.71
2018-06-01T12:55:51.000Z,27.59
2018-06-01T12:56:50.724Z,27.45
2018-06-01T12:57:50.731Z,27.25
2018-06-01T12:58:50.738Z,27.21
2018-06-01T12:59:51.022Z,27.11
2018-06-01T13:00:50.995Z,27.08
2018-06-01T13:01:51.024Z,27.03
2018-06-01T13:02:51.060Z,27.08
2018-06-01T13:03:50.773Z,27
2018-06-01T13:04:50.787Z,26.85
2018-06-01T13:05:50.799Z,26.73
2018-06-01T13:06:50.780Z,26.74
2018-06-01T13:07:51.062Z,26.77
2018-06-01T13:08:51.105Z,26.77
2018-06-01T13:09:50.797Z,26.84
2018-06-01T13:10:50.815Z,26.74
2018-06-01T13:11:50.813Z,26.71
2018-06-01T13:12:50.832Z,26.84
2018-06-01T13:13:51.620Z,26.84
2018-06-01T13:14:51.104Z,26.85
2018-06-01T13:15:51.097Z,26.95
2018-06-01T13:16:50.831Z,26.96
2018-06-01T13:17:50.580Z,27
2018-06-01T13:18:51.104Z,26.95
2018-06-01T13:19:51.191Z,27.11
2018-06-01T13:20:51.104Z,27.15
2018-06-01T13:21:51.125Z,27.32
2018-06-01T13:22:51.130Z,27.42
2018-06-01T13:23:50.884Z,27.35
2018-06-01T13:24:50.880Z,27.32
2018-06-01T13:25:50.880Z,27.32
2018-06-01T13:26:51.159Z,27.36
2018-06-01T13:27:50.905Z,27.39
2018-06-01T13:28:50.898Z,27.35
2018-06-01T13:29:51.269Z,27.29
2018-06-01T13:30:50.900Z,27.08
2018-06-01T13:31:51.181Z,27
2018-06-01T13:32:51.207Z,26.84
2018-06-01T13:33:50.972Z,26.83
2018-06-01T13:34:50.946Z,26.7
2018-06-01T13:35:50.669Z,26.63